Tarryall, Colorado
Current Conditions -  °F | °C
As of 5:14 PM on Sunday 23 Nov 2014 (Local Time) from K4BM Reporting Station
Scattered Clouds Scattered Clouds  
Wind Chill: -8°   Ceiling: Unl
Heat Index:   Visibility: 10mi
Dew Point:   Wind: 15mph
Humidity: 67%   Direction: 330°NNW
Pressure: 29.82"   Gusts: 30mph
Location:  39.1071°N, 105.506°W
Report Text: K4BM 240014Z AUTO 33013G26KT 10SM SCT100 M13/M18 A2982 RMK AO2
Loading
Personal Weather Stations






























Interactive Weather Map New forecast layout! Learn more

10-Day Weather Forecast

Advertisements
Track Severe Weather on mobile